sensor_id;sensor_type;location;lat;lon;timestamp;temperature;humidity
21459;DHT22;10891;49.350;19.386;2023-04-19T00:00:06;7.60;99.90
21459;DHT22;10891;49.350;19.386;2023-04-19T00:02:33;7.60;99.90
21459;DHT22;10891;49.350;19.386;2023-04-19T00:05:00;7.60;99.90
21459;DHT22;10891;49.350;19.386;2023-04-19T00:07:27;7.60;99.90
21459;DHT22;10891;49.350;19.386;2023-04-19T00:09:54;7.60;99.90
21459;DHT22;10891;49.350;19.386;2023-04-19T00:12:21;7.60;99.90
21459;DHT22;10891;49.350;19.386;2023-04-19T00:14:48;7.60;99.90
21459;DHT22;10891;49.350;19.386;2023-04-19T00:17:16;7.60;99.90
21459;DHT22;10891;49.350;19.386;2023-04-19T00:19:44;7.60;99.90
21459;DHT22;10891;49.350;19.386;2023-04-19T00:22:11;7.60;99.90
21459;DHT22;10891;49.350;19.386;2023-04-19T00:24:38;7.60;99.90
21459;DHT22;10891;49.350;19.386;2023-04-19T00:27:05;7.50;99.90
21459;DHT22;10891;49.350;19.386;2023-04-19T00:29:32;7.40;99.90
21459;DHT22;10891;49.350;19.386;2023-04-19T00:31:59;7.40;99.90
21459;DHT22;10891;49.350;19.386;2023-04-19T00:34:27;7.40;99.90
21459;DHT22;10891;49.350;19.386;2023-04-19T00:36:55;7.40;99.90
21459;DHT22;10891;49.350;19.386;2023-04-19T00:39:22;7.40;99.90
21459;DHT22;10891;49.350;19.386;2023-04-19T00:41:49;7.40;99.90
21459;DHT22;10891;49.350;19.386;2023-04-19T00:44:15;7.50;99.90
21459;DHT22;10891;49.350;19.386;2023-04-19T00:46:42;7.50;99.90
21459;DHT22;10891;49.350;19.386;2023-04-19T00:49:09;7.60;99.90
21459;DHT22;10891;49.350;19.386;2023-04-19T00:51:38;7.60;99.90
21459;DHT22;10891;49.350;19.386;2023-04-19T00:54:05;7.50;99.90
21459;DHT22;10891;49.350;19.386;2023-04-19T00:56:33;7.50;99.90
21459;DHT22;10891;49.350;19.386;2023-04-19T00:59:01;7.40;99.90
21459;DHT22;10891;49.350;19.386;2023-04-19T01:01:29;7.40;99.90
21459;DHT22;10891;49.350;19.386;2023-04-19T01:03:56;7.40;99.90
21459;DHT22;10891;49.350;19.386;2023-04-19T01:06:23;7.40;99.90
21459;DHT22;10891;49.350;19.386;2023-04-19T01:08:53;7.40;99.90
21459;DHT22;10891;49.350;19.386;2023-04-19T01:11:22;7.50;99.90
21459;DHT22;10891;49.350;19.386;2023-04-19T01:13:49;7.50;99.90
21459;DHT22;10891;49.350;19.386;2023-04-19T01:16:16;7.60;99.90
21459;DHT22;10891;49.350;19.386;2023-04-19T01:18:43;7.60;99.90
21459;DHT22;10891;49.350;19.386;2023-04-19T01:21:10;7.60;99.90
21459;DHT22;10891;49.350;19.386;2023-04-19T01:23:38;7.50;99.90
21459;DHT22;10891;49.350;19.386;2023-04-19T01:26:05;7.40;99.90
21459;DHT22;10891;49.350;19.386;2023-04-19T01:28:32;7.40;99.90
21459;DHT22;10891;49.350;19.386;2023-04-19T01:30:59;7.40;99.90
21459;DHT22;10891;49.350;19.386;2023-04-19T01:33:26;7.50;99.90
21459;DHT22;10891;49.350;19.386;2023-04-19T01:35:53;7.50;99.90
21459;DHT22;10891;49.350;19.386;2023-04-19T01:38:20;7.50;99.90
21459;DHT22;10891;49.350;19.386;2023-04-19T01:40:48;7.40;99.90
21459;DHT22;10891;49.350;19.386;2023-04-19T01:43:16;7.50;99.90
21459;DHT22;10891;49.350;19.386;2023-04-19T01:45:43;7.50;99.90
21459;DHT22;10891;49.350;19.386;2023-04-19T01:48:10;7.40;99.90
21459;DHT22;10891;49.350;19.386;2023-04-19T01:50:37;7.40;99.90
21459;DHT22;10891;49.350;19.386;2023-04-19T01:53:04;7.40;99.90
21459;DHT22;10891;49.350;19.386;2023-04-19T01:55:31;7.40;99.90
21459;DHT22;10891;49.350;19.386;2023-04-19T01:57:59;7.40;99.90
21459;DHT22;10891;49.350;19.386;2023-04-19T02:00:26;7.40;99.90
21459;DHT22;10891;49.350;19.386;2023-04-19T02:02:53;7.40;99.90
21459;DHT22;10891;49.350;19.386;2023-04-19T02:05:20;7.50;99.90
21459;DHT22;10891;49.350;19.386;2023-04-19T02:07:46;7.60;99.90
21459;DHT22;10891;49.350;19.386;2023-04-19T02:10:13;7.60;99.90
21459;DHT22;10891;49.350;19.386;2023-04-19T02:12:41;7.60;99.90
21459;DHT22;10891;49.350;19.386;2023-04-19T02:15:09;7.60;99.90
21459;DHT22;10891;49.350;19.386;2023-04-19T02:17:36;7.60;99.90
21459;DHT22;10891;49.350;19.386;2023-04-19T02:20:05;7.60;99.90
21459;DHT22;10891;49.350;19.386;2023-04-19T02:22:33;7.60;99.90
21459;DHT22;10891;49.350;19.386;2023-04-19T02:24:59;7.60;99.90
21459;DHT22;10891;49.350;19.386;2023-04-19T02:27:26;7.60;99.90
21459;DHT22;10891;49.350;19.386;2023-04-19T02:29:54;7.60;99.90
21459;DHT22;10891;49.350;19.386;2023-04-19T02:32:23;7.60;99.90
21459;DHT22;10891;49.350;19.386;2023-04-19T02:34:50;7.60;99.90
21459;DHT22;10891;49.350;19.386;2023-04-19T02:37:16;7.60;99.90
21459;DHT22;10891;49.350;19.386;2023-04-19T02:39:43;7.60;99.90
21459;DHT22;10891;49.350;19.386;2023-04-19T02:42:11;7.60;99.90
21459;DHT22;10891;49.350;19.386;2023-04-19T02:44:37;7.60;99.90
21459;DHT22;10891;49.350;19.386;2023-04-19T02:47:04;7.60;99.90
21459;DHT22;10891;49.350;19.386;2023-04-19T02:49:34;7.60;99.90
21459;DHT22;10891;49.350;19.386;2023-04-19T02:52:02;7.60;99.90
21459;DHT22;10891;49.350;19.386;2023-04-19T02:54:29;7.60;99.90
21459;DHT22;10891;49.350;19.386;2023-04-19T02:56:57;7.60;99.90
21459;DHT22;10891;49.350;19.386;2023-04-19T02:59:24;7.60;99.90
21459;DHT22;10891;49.350;19.386;2023-04-19T03:01:51;7.60;99.90
21459;DHT22;10891;49.350;19.386;2023-04-19T03:04:18;7.70;99.90
21459;DHT22;10891;49.350;19.386;2023-04-19T03:06:46;7.70;99.90
21459;DHT22;10891;49.350;19.386;2023-04-19T03:09:13;7.60;99.90
21459;DHT22;10891;49.350;19.386;2023-04-19T03:11:40;7.60;99.90
21459;DHT22;10891;49.350;19.386;2023-04-19T03:14:07;7.60;99.90
21459;DHT22;10891;49.350;19.386;2023-04-19T03:16:34;7.60;99.90
21459;DHT22;10891;49.350;19.386;2023-04-19T03:19:02;7.60;99.90
21459;DHT22;10891;49.350;19.386;2023-04-19T03:21:29;7.70;99.90
21459;DHT22;10891;49.350;19.386;2023-04-19T03:23:57;7.70;99.90
21459;DHT22;10891;49.350;19.386;2023-04-19T03:26:24;7.60;99.90
21459;DHT22;10891;49.350;19.386;2023-04-19T03:28:51;7.60;99.90
21459;DHT22;10891;49.350;19.386;2023-04-19T03:31:18;7.70;99.90
21459;DHT22;10891;49.350;19.386;2023-04-19T03:33:46;7.70;99.90
21459;DHT22;10891;49.350;19.386;2023-04-19T03:36:13;7.70;99.90
21459;DHT22;10891;49.350;19.386;2023-04-19T03:38:39;7.70;99.90
21459;DHT22;10891;49.350;19.386;2023-04-19T03:41:18;7.60;99.90
21459;DHT22;10891;49.350;19.386;2023-04-19T03:43:45;7.60;99.90
21459;DHT22;10891;49.350;19.386;2023-04-19T03:46:12;7.60;99.90
21459;DHT22;10891;49.350;19.386;2023-04-19T03:48:39;7.60;99.90
21459;DHT22;10891;49.350;19.386;2023-04-19T03:51:06;7.60;99.90
21459;DHT22;10891;49.350;19.386;2023-04-19T03:53:32;7.60;99.90
21459;DHT22;10891;49.350;19.386;2023-04-19T03:56:00;7.70;99.90
21459;DHT22;10891;49.350;19.386;2023-04-19T03:58:28;7.70;99.90
21459;DHT22;10891;49.350;19.386;2023-04-19T04:00:55;7.60;99.90
21459;DHT22;10891;49.350;19.386;2023-04-19T04:03:22;7.60;99.90
21459;DHT22;10891;49.350;19.386;2023-04-19T04:05:48;7.50;99.90
21459;DHT22;10891;49.350;19.386;2023-04-19T04:08:15;7.50;99.90
21459;DHT22;10891;49.350;19.386;2023-04-19T04:10:42;7.50;99.90
21459;DHT22;10891;49.350;19.386;2023-04-19T04:13:09;7.50;99.90
21459;DHT22;10891;49.350;19.386;2023-04-19T04:15:37;7.50;99.90
21459;DHT22;10891;49.350;19.386;2023-04-19T04:18:04;7.50;99.90
21459;DHT22;10891;49.350;19.386;2023-04-19T04:20:31;7.50;99.90
21459;DHT22;10891;49.350;19.386;2023-04-19T04:22:58;7.60;99.90
21459;DHT22;10891;49.350;19.386;2023-04-19T04:25:25;7.60;99.90
21459;DHT22;10891;49.350;19.386;2023-04-19T04:27:53;7.60;99.90
21459;DHT22;10891;49.350;19.386;2023-04-19T04:30:20;7.60;99.90
21459;DHT22;10891;49.350;19.386;2023-04-19T04:32:49;7.60;99.90
21459;DHT22;10891;49.350;19.386;2023-04-19T04:35:17;7.60;99.90
21459;DHT22;10891;49.350;19.386;2023-04-19T04:37:45;7.70;99.90
21459;DHT22;10891;49.350;19.386;2023-04-19T04:40:13;7.70;99.90
21459;DHT22;10891;49.350;19.386;2023-04-19T04:42:40;7.80;99.90
21459;DHT22;10891;49.350;19.386;2023-04-19T04:45:08;7.70;99.90
21459;DHT22;10891;49.350;19.386;2023-04-19T04:47:36;7.80;99.90
21459;DHT22;10891;49.350;19.386;2023-04-19T04:50:06;7.80;99.90
21459;DHT22;10891;49.350;19.386;2023-04-19T04:52:33;7.90;99.90
21459;DHT22;10891;49.350;19.386;2023-04-19T04:55:00;7.90;99.90
21459;DHT22;10891;49.350;19.386;2023-04-19T04:57:27;7.90;99.90
21459;DHT22;10891;49.350;19.386;2023-04-19T04:59:55;8.00;99.90
21459;DHT22;10891;49.350;19.386;2023-04-19T05:02:22;8.10;99.90
21459;DHT22;10891;49.350;19.386;2023-04-19T05:04:50;8.20;99.90
21459;DHT22;10891;49.350;19.386;2023-04-19T05:07:18;8.30;99.90
21459;DHT22;10891;49.350;19.386;2023-04-19T05:09:45;8.40;99.90
21459;DHT22;10891;49.350;19.386;2023-04-19T05:12:12;8.50;99.90
21459;DHT22;10891;49.350;19.386;2023-04-19T05:14:39;8.60;99.90
21459;DHT22;10891;49.350;19.386;2023-04-19T05:17:06;8.70;99.90
21459;DHT22;10891;49.350;19.386;2023-04-19T05:19:33;8.70;99.90
21459;DHT22;10891;49.350;19.386;2023-04-19T05:22:00;8.80;99.90
21459;DHT22;10891;49.350;19.386;2023-04-19T05:24:28;8.90;99.90
21459;DHT22;10891;49.350;19.386;2023-04-19T05:26:55;9.00;99.90
21459;DHT22;10891;49.350;19.386;2023-04-19T05:29:22;9.00;99.90
21459;DHT22;10891;49.350;19.386;2023-04-19T05:31:49;9.10;99.90
21459;DHT22;10891;49.350;19.386;2023-04-19T05:34:16;9.10;99.90
21459;DHT22;10891;49.350;19.386;2023-04-19T05:36:43;9.30;99.90
21459;DHT22;10891;49.350;19.386;2023-04-19T05:39:10;9.60;99.90
21459;DHT22;10891;49.350;19.386;2023-04-19T05:41:38;9.80;99.90
21459;DHT22;10891;49.350;19.386;2023-04-19T05:44:06;9.90;99.90
21459;DHT22;10891;49.350;19.386;2023-04-19T05:46:32;10.10;99.90
21459;DHT22;10891;49.350;19.386;2023-04-19T05:49:01;10.30;99.90
21459;DHT22;10891;49.350;19.386;2023-04-19T05:51:28;10.50;99.90
21459;DHT22;10891;49.350;19.386;2023-04-19T05:53:55;10.70;99.90
21459;DHT22;10891;49.350;19.386;2023-04-19T05:56:22;11.10;99.90
21459;DHT22;10891;49.350;19.386;2023-04-19T05:58:53;11.40;99.90
21459;DHT22;10891;49.350;19.386;2023-04-19T06:01:21;12.20;99.90
21459;DHT22;10891;49.350;19.386;2023-04-19T06:03:48;12.80;99.90
21459;DHT22;10891;49.350;19.386;2023-04-19T06:06:17;12.90;99.90
21459;DHT22;10891;49.350;19.386;2023-04-19T06:08:44;12.30;99.90
21459;DHT22;10891;49.350;19.386;2023-04-19T06:11:11;12.10;99.90
21459;DHT22;10891;49.350;19.386;2023-04-19T06:13:38;11.90;99.90
21459;DHT22;10891;49.350;19.386;2023-04-19T06:16:07;11.90;99.90
21459;DHT22;10891;49.350;19.386;2023-04-19T06:18:35;11.90;99.90
21459;DHT22;10891;49.350;19.386;2023-04-19T06:21:02;11.90;99.90
21459;DHT22;10891;49.350;19.386;2023-04-19T06:23:31;11.40;99.90
21459;DHT22;10891;49.350;19.386;2023-04-19T06:25:58;11.50;99.90
21459;DHT22;10891;49.350;19.386;2023-04-19T06:28:25;11.40;99.90
21459;DHT22;10891;49.350;19.386;2023-04-19T06:30:52;11.50;99.90
21459;DHT22;10891;49.350;19.386;2023-04-19T06:33:20;11.40;99.90
21459;DHT22;10891;49.350;19.386;2023-04-19T06:35:47;11.20;99.90
21459;DHT22;10891;49.350;19.386;2023-04-19T06:38:14;11.20;99.90
21459;DHT22;10891;49.350;19.386;2023-04-19T06:40:41;11.30;99.90
21459;DHT22;10891;49.350;19.386;2023-04-19T06:43:08;11.40;99.90
21459;DHT22;10891;49.350;19.386;2023-04-19T06:45:36;11.00;99.90
21459;DHT22;10891;49.350;19.386;2023-04-19T06:48:03;11.00;99.90
21459;DHT22;10891;49.350;19.386;2023-04-19T06:50:32;10.90;99.90
21459;DHT22;10891;49.350;19.386;2023-04-19T06:52:59;10.60;99.90
21459;DHT22;10891;49.350;19.386;2023-04-19T06:55:26;10.70;99.90
21459;DHT22;10891;49.350;19.386;2023-04-19T06:57:53;10.60;99.90
21459;DHT22;10891;49.350;19.386;2023-04-19T07:00:21;10.60;99.90
21459;DHT22;10891;49.350;19.386;2023-04-19T07:02:48;10.50;99.90
21459;DHT22;10891;49.350;19.386;2023-04-19T07:05:15;10.50;99.90
21459;DHT22;10891;49.350;19.386;2023-04-19T07:07:43;10.60;99.90
21459;DHT22;10891;49.350;19.386;2023-04-19T07:10:11;10.70;99.90
21459;DHT22;10891;49.350;19.386;2023-04-19T07:12:38;10.90;99.90
21459;DHT22;10891;49.350;19.386;2023-04-19T07:15:06;11.20;99.90
21459;DHT22;10891;49.350;19.386;2023-04-19T07:17:34;11.20;99.90
21459;DHT22;10891;49.350;19.386;2023-04-19T07:20:05;11.20;99.90
21459;DHT22;10891;49.350;19.386;2023-04-19T07:22:32;11.30;99.90
21459;DHT22;10891;49.350;19.386;2023-04-19T07:25:01;11.30;99.90
21459;DHT22;10891;49.350;19.386;2023-04-19T07:27:28;11.30;99.90
21459;DHT22;10891;49.350;19.386;2023-04-19T07:29:58;11.70;99.90
21459;DHT22;10891;49.350;19.386;2023-04-19T07:32:25;12.00;99.90
21459;DHT22;10891;49.350;19.386;2023-04-19T07:34:52;11.80;99.90
21459;DHT22;10891;49.350;19.386;2023-04-19T07:37:20;11.50;99.90
21459;DHT22;10891;49.350;19.386;2023-04-19T07:39:50;11.30;99.90
21459;DHT22;10891;49.350;19.386;2023-04-19T07:42:18;11.20;99.90
21459;DHT22;10891;49.350;19.386;2023-04-19T07:44:48;11.40;99.90
21459;DHT22;10891;49.350;19.386;2023-04-19T07:47:18;11.40;99.90
21459;DHT22;10891;49.350;19.386;2023-04-19T07:49:45;11.60;99.90
21459;DHT22;10891;49.350;19.386;2023-04-19T07:52:12;11.80;99.90
21459;DHT22;10891;49.350;19.386;2023-04-19T07:54:39;11.70;99.90
21459;DHT22;10891;49.350;19.386;2023-04-19T07:57:07;11.30;99.90
21459;DHT22;10891;49.350;19.386;2023-04-19T07:59:35;11.00;99.90
21459;DHT22;10891;49.350;19.386;2023-04-19T08:02:03;10.90;99.90
21459;DHT22;10891;49.350;19.386;2023-04-19T08:04:30;11.00;99.90
21459;DHT22;10891;49.350;19.386;2023-04-19T08:06:57;10.80;99.90
21459;DHT22;10891;49.350;19.386;2023-04-19T08:09:24;10.40;99.90
21459;DHT22;10891;49.350;19.386;2023-04-19T08:11:51;10.70;99.90
21459;DHT22;10891;49.350;19.386;2023-04-19T08:14:18;10.70;99.90
21459;DHT22;10891;49.350;19.386;2023-04-19T08:16:46;10.80;99.90
21459;DHT22;10891;49.350;19.386;2023-04-19T08:19:13;10.90;99.90
21459;DHT22;10891;49.350;19.386;2023-04-19T08:21:40;11.30;99.90
21459;DHT22;10891;49.350;19.386;2023-04-19T08:24:08;12.10;99.90
21459;DHT22;10891;49.350;19.386;2023-04-19T08:26:35;11.90;99.90
21459;DHT22;10891;49.350;19.386;2023-04-19T08:29:03;11.80;99.90
21459;DHT22;10891;49.350;19.386;2023-04-19T08:31:30;11.70;99.90
21459;DHT22;10891;49.350;19.386;2023-04-19T08:33:58;11.60;99.90
21459;DHT22;10891;49.350;19.386;2023-04-19T08:36:27;11.50;99.90
21459;DHT22;10891;49.350;19.386;2023-04-19T08:38:55;11.00;99.90
21459;DHT22;10891;49.350;19.386;2023-04-19T08:41:21;10.90;99.90
21459;DHT22;10891;49.350;19.386;2023-04-19T08:43:51;10.80;99.90
21459;DHT22;10891;49.350;19.386;2023-04-19T08:46:18;10.50;99.90
21459;DHT22;10891;49.350;19.386;2023-04-19T08:48:49;10.40;99.90
21459;DHT22;10891;49.350;19.386;2023-04-19T08:51:18;10.40;99.90
21459;DHT22;10891;49.350;19.386;2023-04-19T08:53:46;10.20;99.90
21459;DHT22;10891;49.350;19.386;2023-04-19T08:56:14;9.70;99.90
21459;DHT22;10891;49.350;19.386;2023-04-19T08:58:41;9.60;99.90
21459;DHT22;10891;49.350;19.386;2023-04-19T09:01:08;9.40;99.90
21459;DHT22;10891;49.350;19.386;2023-04-19T09:03:42;9.20;99.90
21459;DHT22;10891;49.350;19.386;2023-04-19T09:06:09;9.00;99.90
21459;DHT22;10891;49.350;19.386;2023-04-19T09:08:38;8.80;99.90
21459;DHT22;10891;49.350;19.386;2023-04-19T09:11:06;8.60;99.90
21459;DHT22;10891;49.350;19.386;2023-04-19T09:13:33;8.40;99.90
21459;DHT22;10891;49.350;19.386;2023-04-19T09:16:03;8.60;99.90
21459;DHT22;10891;49.350;19.386;2023-04-19T09:18:32;8.50;99.90
21459;DHT22;10891;49.350;19.386;2023-04-19T09:20:59;8.40;99.90
21459;DHT22;10891;49.350;19.386;2023-04-19T09:23:27;8.60;99.90
21459;DHT22;10891;49.350;19.386;2023-04-19T09:25:56;8.60;99.90
21459;DHT22;10891;49.350;19.386;2023-04-19T09:28:25;8.60;99.90
21459;DHT22;10891;49.350;19.386;2023-04-19T09:30:53;8.70;99.90
21459;DHT22;10891;49.350;19.386;2023-04-19T09:33:31;8.60;99.90
21459;DHT22;10891;49.350;19.386;2023-04-19T09:35:59;8.70;99.90
21459;DHT22;10891;49.350;19.386;2023-04-19T09:38:26;8.80;99.90
21459;DHT22;10891;49.350;19.386;2023-04-19T09:41:05;8.90;99.90
21459;DHT22;10891;49.350;19.386;2023-04-19T09:43:32;9.00;99.90
21459;DHT22;10891;49.350;19.386;2023-04-19T09:45:59;9.00;99.90
21459;DHT22;10891;49.350;19.386;2023-04-19T09:48:26;9.00;99.90
21459;DHT22;10891;49.350;19.386;2023-04-19T09:50:54;9.10;99.90
21459;DHT22;10891;49.350;19.386;2023-04-19T09:53:23;9.20;99.90
21459;DHT22;10891;49.350;19.386;2023-04-19T09:55:51;9.10;99.90
21459;DHT22;10891;49.350;19.386;2023-04-19T09:58:20;8.90;99.90
21459;DHT22;10891;49.350;19.386;2023-04-19T10:00:48;8.90;99.90
21459;DHT22;10891;49.350;19.386;2023-04-19T10:03:17;9.00;99.90
21459;DHT22;10891;49.350;19.386;2023-04-19T10:05:44;8.80;99.90
21459;DHT22;10891;49.350;19.386;2023-04-19T10:08:12;8.80;99.90
21459;DHT22;10891;49.350;19.386;2023-04-19T10:10:40;8.90;99.90
21459;DHT22;10891;49.350;19.386;2023-04-19T10:13:09;8.80;99.90
21459;DHT22;10891;49.350;19.386;2023-04-19T10:15:38;8.80;99.90
21459;DHT22;10891;49.350;19.386;2023-04-19T10:18:07;8.90;99.90
21459;DHT22;10891;49.350;19.386;2023-04-19T10:20:40;8.90;99.90
21459;DHT22;10891;49.350;19.386;2023-04-19T10:23:07;8.90;99.90
21459;DHT22;10891;49.350;19.386;2023-04-19T10:25:36;9.10;99.90
21459;DHT22;10891;49.350;19.386;2023-04-19T10:28:04;9.10;99.90
21459;DHT22;10891;49.350;19.386;2023-04-19T10:30:31;9.00;99.90
21459;DHT22;10891;49.350;19.386;2023-04-19T10:33:00;9.00;99.90
21459;DHT22;10891;49.350;19.386;2023-04-19T10:35:34;9.30;99.90
21459;DHT22;10891;49.350;19.386;2023-04-19T10:38:07;9.40;99.90
21459;DHT22;10891;49.350;19.386;2023-04-19T10:40:53;9.20;99.90
21459;DHT22;10891;49.350;19.386;2023-04-19T10:43:21;9.30;99.90
21459;DHT22;10891;49.350;19.386;2023-04-19T10:45:48;9.50;99.90
21459;DHT22;10891;49.350;19.386;2023-04-19T10:48:39;9.80;99.90
21459;DHT22;10891;49.350;19.386;2023-04-19T10:51:12;10.20;99.90
21459;DHT22;10891;49.350;19.386;2023-04-19T10:53:55;10.40;99.90
21459;DHT22;10891;49.350;19.386;2023-04-19T10:59:30;10.50;99.90
21459;DHT22;10891;49.350;19.386;2023-04-19T11:01:58;10.50;99.90
21459;DHT22;10891;49.350;19.386;2023-04-19T11:04:59;10.90;99.90
21459;DHT22;10891;49.350;19.386;2023-04-19T11:07:27;10.70;99.90
21459;DHT22;10891;49.350;19.386;2023-04-19T11:09:53;10.40;99.90
21459;DHT22;10891;49.350;19.386;2023-04-19T11:12:20;10.10;99.90
21459;DHT22;10891;49.350;19.386;2023-04-19T11:14:50;10.20;99.90
21459;DHT22;10891;49.350;19.386;2023-04-19T11:17:18;10.20;99.90
21459;DHT22;10891;49.350;19.386;2023-04-19T11:19:52;10.20;99.90
21459;DHT22;10891;49.350;19.386;2023-04-19T11:22:28;10.00;99.90
21459;DHT22;10891;49.350;19.386;2023-04-19T11:24:55;9.90;99.90
21459;DHT22;10891;49.350;19.386;2023-04-19T11:27:22;10.00;99.90
21459;DHT22;10891;49.350;19.386;2023-04-19T11:29:50;10.10;99.90
21459;DHT22;10891;49.350;19.386;2023-04-19T11:32:20;9.80;99.90
21459;DHT22;10891;49.350;19.386;2023-04-19T11:34:47;9.70;99.90
21459;DHT22;10891;49.350;19.386;2023-04-19T11:37:17;9.50;99.90
21459;DHT22;10891;49.350;19.386;2023-04-19T11:39:46;9.60;99.90
21459;DHT22;10891;49.350;19.386;2023-04-19T11:42:17;9.50;99.90
21459;DHT22;10891;49.350;19.386;2023-04-19T11:44:48;9.60;99.90
21459;DHT22;10891;49.350;19.386;2023-04-19T11:47:16;9.40;99.90
21459;DHT22;10891;49.350;19.386;2023-04-19T11:49:43;9.60;99.90
21459;DHT22;10891;49.350;19.386;2023-04-19T11:52:10;9.50;99.90
21459;DHT22;10891;49.350;19.386;2023-04-19T11:54:37;9.60;99.90
21459;DHT22;10891;49.350;19.386;2023-04-19T11:57:06;9.60;99.90
21459;DHT22;10891;49.350;19.386;2023-04-19T11:59:35;9.40;99.90
21459;DHT22;10891;49.350;19.386;2023-04-19T12:02:09;9.10;99.90
21459;DHT22;10891;49.350;19.386;2023-04-19T12:04:36;9.00;99.90
21459;DHT22;10891;49.350;19.386;2023-04-19T12:07:05;9.00;99.90
21459;DHT22;10891;49.350;19.386;2023-04-19T12:09:33;9.00;99.90
21459;DHT22;10891;49.350;19.386;2023-04-19T12:12:00;9.10;99.90
21459;DHT22;10891;49.350;19.386;2023-04-19T12:14:29;9.10;99.90
21459;DHT22;10891;49.350;19.386;2023-04-19T12:17:07;9.10;99.90
21459;DHT22;10891;49.350;19.386;2023-04-19T12:19:36;9.20;99.90
21459;DHT22;10891;49.350;19.386;2023-04-19T12:22:14;9.50;99.90
21459;DHT22;10891;49.350;19.386;2023-04-19T12:24:42;9.70;99.90
21459;DHT22;10891;49.350;19.386;2023-04-19T12:27:09;10.10;99.90
21459;DHT22;10891;49.350;19.386;2023-04-19T12:29:38;10.40;99.90
21459;DHT22;10891;49.350;19.386;2023-04-19T12:32:05;10.50;99.90
21459;DHT22;10891;49.350;19.386;2023-04-19T12:34:32;10.40;99.90
21459;DHT22;10891;49.350;19.386;2023-04-19T12:37:00;10.10;99.90
21459;DHT22;10891;49.350;19.386;2023-04-19T12:39:28;9.70;99.90
21459;DHT22;10891;49.350;19.386;2023-04-19T12:41:56;9.90;99.90
21459;DHT22;10891;49.350;19.386;2023-04-19T12:44:23;10.10;99.90
21459;DHT22;10891;49.350;19.386;2023-04-19T12:46:52;9.80;99.90
21459;DHT22;10891;49.350;19.386;2023-04-19T12:49:22;10.10;99.90
21459;DHT22;10891;49.350;19.386;2023-04-19T12:51:50;10.00;99.90
21459;DHT22;10891;49.350;19.386;2023-04-19T12:54:17;9.70;99.90
21459;DHT22;10891;49.350;19.386;2023-04-19T12:56:44;9.50;99.90
21459;DHT22;10891;49.350;19.386;2023-04-19T12:59:12;9.30;99.90
21459;DHT22;10891;49.350;19.386;2023-04-19T13:01:40;9.40;99.90
21459;DHT22;10891;49.350;19.386;2023-04-19T13:04:08;9.30;99.90
21459;DHT22;10891;49.350;19.386;2023-04-19T13:06:37;9.70;99.90
21459;DHT22;10891;49.350;19.386;2023-04-19T13:09:05;10.00;99.90
21459;DHT22;10891;49.350;19.386;2023-04-19T13:11:33;9.80;99.90
21459;DHT22;10891;49.350;19.386;2023-04-19T13:14:00;9.90;99.90
21459;DHT22;10891;49.350;19.386;2023-04-19T13:16:29;10.00;99.90
21459;DHT22;10891;49.350;19.386;2023-04-19T13:18:56;10.20;99.90
21459;DHT22;10891;49.350;19.386;2023-04-19T13:21:25;10.10;99.90
21459;DHT22;10891;49.350;19.386;2023-04-19T13:23:52;10.10;99.90
21459;DHT22;10891;49.350;19.386;2023-04-19T13:26:20;10.10;99.90
21459;DHT22;10891;49.350;19.386;2023-04-19T13:28:48;9.90;99.90
21459;DHT22;10891;49.350;19.386;2023-04-19T13:31:15;9.70;99.90
21459;DHT22;10891;49.350;19.386;2023-04-19T13:33:42;9.50;99.90
21459;DHT22;10891;49.350;19.386;2023-04-19T13:36:10;9.50;99.90
21459;DHT22;10891;49.350;19.386;2023-04-19T13:38:39;9.30;99.90
21459;DHT22;10891;49.350;19.386;2023-04-19T13:41:06;9.30;99.90
21459;DHT22;10891;49.350;19.386;2023-04-19T13:43:34;9.30;99.90
21459;DHT22;10891;49.350;19.386;2023-04-19T13:46:01;9.40;99.90
21459;DHT22;10891;49.350;19.386;2023-04-19T13:48:28;9.60;99.90
21459;DHT22;10891;49.350;19.386;2023-04-19T13:50:57;9.40;99.90
21459;DHT22;10891;49.350;19.386;2023-04-19T13:53:26;9.10;99.90
21459;DHT22;10891;49.350;19.386;2023-04-19T13:55:55;9.10;99.90
21459;DHT22;10891;49.350;19.386;2023-04-19T13:58:23;9.00;99.90
21459;DHT22;10891;49.350;19.386;2023-04-19T14:00:50;9.20;99.90
21459;DHT22;10891;49.350;19.386;2023-04-19T14:03:18;9.20;99.90
21459;DHT22;10891;49.350;19.386;2023-04-19T14:05:45;9.10;99.90
21459;DHT22;10891;49.350;19.386;2023-04-19T14:08:13;9.10;99.90
21459;DHT22;10891;49.350;19.386;2023-04-19T14:10:39;9.00;99.90
21459;DHT22;10891;49.350;19.386;2023-04-19T14:13:08;8.80;99.90
21459;DHT22;10891;49.350;19.386;2023-04-19T14:15:35;8.80;99.90
21459;DHT22;10891;49.350;19.386;2023-04-19T14:18:02;8.80;99.90
21459;DHT22;10891;49.350;19.386;2023-04-19T14:20:29;8.60;99.90
21459;DHT22;10891;49.350;19.386;2023-04-19T14:22:56;8.70;99.90
21459;DHT22;10891;49.350;19.386;2023-04-19T14:25:24;8.70;99.90
21459;DHT22;10891;49.350;19.386;2023-04-19T14:27:51;8.60;99.90
21459;DHT22;10891;49.350;19.386;2023-04-19T14:30:20;8.50;99.90
21459;DHT22;10891;49.350;19.386;2023-04-19T14:32:47;8.50;99.90
21459;DHT22;10891;49.350;19.386;2023-04-19T14:35:14;8.60;99.90
21459;DHT22;10891;49.350;19.386;2023-04-19T14:37:41;8.60;99.90
21459;DHT22;10891;49.350;19.386;2023-04-19T14:40:09;8.50;99.90
21459;DHT22;10891;49.350;19.386;2023-04-19T14:42:36;8.50;99.90
21459;DHT22;10891;49.350;19.386;2023-04-19T14:45:04;8.40;99.90
21459;DHT22;10891;49.350;19.386;2023-04-19T14:47:33;8.50;99.90
21459;DHT22;10891;49.350;19.386;2023-04-19T14:50:00;8.40;99.90
21459;DHT22;10891;49.350;19.386;2023-04-19T14:52:27;8.60;99.90
21459;DHT22;10891;49.350;19.386;2023-04-19T14:54:56;8.70;99.90
21459;DHT22;10891;49.350;19.386;2023-04-19T14:57:24;8.70;99.90
21459;DHT22;10891;49.350;19.386;2023-04-19T14:59:53;8.70;99.90
21459;DHT22;10891;49.350;19.386;2023-04-19T15:02:22;8.60;99.90
21459;DHT22;10891;49.350;19.386;2023-04-19T15:04:52;8.60;99.90
21459;DHT22;10891;49.350;19.386;2023-04-19T15:07:19;8.50;99.90
21459;DHT22;10891;49.350;19.386;2023-04-19T15:09:46;8.60;99.90
21459;DHT22;10891;49.350;19.386;2023-04-19T15:12:14;8.60;99.90
21459;DHT22;10891;49.350;19.386;2023-04-19T15:14:41;8.70;99.90
21459;DHT22;10891;49.350;19.386;2023-04-19T15:17:08;8.60;99.90
21459;DHT22;10891;49.350;19.386;2023-04-19T15:19:38;8.50;99.90
21459;DHT22;10891;49.350;19.386;2023-04-19T15:22:07;8.50;99.90
21459;DHT22;10891;49.350;19.386;2023-04-19T15:24:34;8.40;99.90
21459;DHT22;10891;49.350;19.386;2023-04-19T15:27:04;8.50;99.90
21459;DHT22;10891;49.350;19.386;2023-04-19T15:29:31;8.30;99.90
21459;DHT22;10891;49.350;19.386;2023-04-19T15:31:58;8.30;99.90
21459;DHT22;10891;49.350;19.386;2023-04-19T15:34:27;8.10;99.90